Time;durP1;ratioP1;P1;durP2;ratioP2;P2;SDS_P1;SDS_P2;PMS_P1;PMS_P2;Temp;Humidity;BMP_temperature;BMP_pressure;BME280_temperature;BME280_humidity;BME280_pressure;Samples;Min_cycle;Max_cycle;Signal;HPM_P1;HPM_P2
2023/12/29 00:01:59;;;;;;;10.60;7.20;;;10.90;54.20;;;;;;5104159;28;20194;-91
2023/12/29 00:04:25;;;;;;;10.87;7.50;;;10.90;54.30;;;;;;5098904;28;20180;-91
2023/12/29 00:06:51;;;;;;;9.70;6.77;;;10.90;54.30;;;;;;5097445;28;20671;-91
2023/12/29 00:09:17;;;;;;;10.13;7.47;;;10.90;54.40;;;;;;5106642;28;20184;-90
2023/12/29 00:11:43;;;;;;;10.83;7.57;;;10.90;54.50;;;;;;5087109;28;20190;-91
2023/12/29 00:14:08;;;;;;;11.63;7.53;;;10.90;54.50;;;;;;5104979;28;20212;-90
2023/12/29 00:16:34;;;;;;;11.23;7.47;;;10.90;54.50;;;;;;5100628;28;20228;-91
2023/12/29 00:18:59;;;;;;;10.07;7.43;;;10.90;54.50;;;;;;5100984;28;21188;-90
2023/12/29 00:21:25;;;;;;;9.67;7.03;;;10.90;54.60;;;;;;5101171;28;20202;-90
2023/12/29 00:23:51;;;;;;;8.97;7.03;;;10.90;54.60;;;;;;5116259;28;20240;-90
2023/12/29 00:26:17;;;;;;;12.03;7.70;;;10.90;54.60;;;;;;5116356;28;20526;-90
2023/12/29 00:28:43;;;;;;;9.83;7.37;;;11.00;54.50;;;;;;5104183;28;20173;-91
2023/12/29 00:31:14;;;;;;;11.60;8.00;;;10.90;54.40;;;;;;5107753;28;20179;-91
2023/12/29 00:33:39;;;;;;;9.60;6.97;;;10.90;54.40;;;;;;5115609;28;20207;-91
2023/12/29 00:36:05;;;;;;;10.73;7.63;;;11.00;54.60;;;;;;5109692;28;20535;-91
2023/12/29 00:38:31;;;;;;;8.93;6.43;;;11.00;54.50;;;;;;5116660;28;20597;-90
2023/12/29 00:40:56;;;;;;;10.43;7.17;;;11.00;54.40;;;;;;5107768;28;20196;-89
2023/12/29 00:43:22;;;;;;;10.03;7.63;;;11.00;54.40;;;;;;5103330;28;20181;-89
2023/12/29 00:45:48;;;;;;;9.17;7.03;;;11.00;54.30;;;;;;5123394;28;20184;-89
2023/12/29 00:48:14;;;;;;;8.50;6.40;;;10.90;54.20;;;;;;5124173;28;20177;-89
2023/12/29 00:50:40;;;;;;;9.80;6.67;;;11.00;54.30;;;;;;5122744;28;20187;-89
2023/12/29 00:53:05;;;;;;;10.63;6.53;;;10.90;54.20;;;;;;5113452;28;20275;-90
2023/12/29 00:55:31;;;;;;;12.27;7.20;;;11.00;54.20;;;;;;5097110;28;20178;-92
2023/12/29 00:57:56;;;;;;;11.00;7.23;;;11.00;54.20;;;;;;5124982;28;20572;-91
2023/12/29 01:00:22;;;;;;;13.00;7.57;;;11.00;54.10;;;;;;5109317;28;20192;-90
2023/12/29 01:02:48;;;;;;;9.93;7.07;;;11.00;54.10;;;;;;5112427;28;20179;-89
2023/12/29 01:05:17;;;;;;;10.40;7.40;;;11.00;54.10;;;;;;5116199;28;20251;-88
2023/12/29 01:07:43;;;;;;;11.07;7.30;;;11.00;54.00;;;;;;5122415;28;20180;-92
2023/12/29 01:10:09;;;;;;;11.30;7.57;;;11.00;54.00;;;;;;5108258;28;20179;-89
2023/12/29 01:12:34;;;;;;;11.80;7.60;;;11.00;54.00;;;;;;5106545;28;20184;-90
2023/12/29 01:15:00;;;;;;;11.33;7.60;;;11.00;54.00;;;;;;5113014;28;20259;-92
2023/12/29 01:17:27;;;;;;;9.77;7.30;;;11.00;53.90;;;;;;5114178;28;20262;-89
2023/12/29 01:19:56;;;;;;;10.00;6.93;;;11.00;53.70;;;;;;5111443;28;20192;-90
2023/12/29 01:22:22;;;;;;;9.03;7.27;;;10.90;53.60;;;;;;5102645;28;20180;-93
2023/12/29 01:24:47;;;;;;;12.93;8.00;;;10.90;53.70;;;;;;5110665;28;20554;-91
2023/12/29 01:27:13;;;;;;;11.40;7.97;;;10.90;53.50;;;;;;5108645;28;20199;-91
2023/12/29 01:29:39;;;;;;;10.20;7.37;;;10.90;53.60;;;;;;5105672;28;20278;-93
2023/12/29 01:32:07;;;;;;;10.47;7.83;;;10.80;53.60;;;;;;5106049;28;20180;-92
2023/12/29 01:34:33;;;;;;;10.93;7.13;;;10.90;53.80;;;;;;5106109;28;20273;-88
2023/12/29 01:37:03;;;;;;;9.83;6.77;;;10.90;53.70;;;;;;5107529;28;20168;-92
2023/12/29 01:39:30;;;;;;;10.50;7.30;;;10.90;53.60;;;;;;5098112;28;20180;-89
2023/12/29 01:41:56;;;;;;;10.13;7.37;;;10.90;53.70;;;;;;5112303;28;20183;-89
2023/12/29 01:44:23;;;;;;;11.70;8.10;;;10.90;53.50;;;;;;5108446;28;20270;-89
2023/12/29 01:46:54;;;;;;;11.27;8.03;;;10.80;53.60;;;;;;5114820;28;20183;-89
2023/12/29 01:49:21;;;;;;;13.57;8.20;;;10.80;53.70;;;;;;5112885;28;20841;-88
2023/12/29 01:51:51;;;;;;;10.13;6.93;;;10.80;53.60;;;;;;5108153;28;20189;-90
2023/12/29 01:54:18;;;;;;;13.90;8.43;;;10.80;53.60;;;;;;5106442;28;20215;-90
2023/12/29 01:56:44;;;;;;;10.70;8.10;;;10.80;53.70;;;;;;5113903;28;20183;-90
2023/12/29 01:59:10;;;;;;;12.70;8.60;;;10.80;53.70;;;;;;5102321;28;20180;-90
2023/12/29 02:01:38;;;;;;;12.37;7.80;;;10.80;53.80;;;;;;5105460;28;20167;-90
2023/12/29 02:04:05;;;;;;;9.87;7.70;;;10.80;54.30;;;;;;5102446;28;20175;-90
2023/12/29 02:06:31;;;;;;;12.63;8.17;;;10.80;53.70;;;;;;5102196;28;20212;-90
2023/12/29 02:08:58;;;;;;;10.97;7.73;;;10.80;53.70;;;;;;5105103;28;20201;-90
2023/12/29 02:11:25;;;;;;;13.17;8.40;;;10.70;53.60;;;;;;5098939;28;20180;-90
2023/12/29 02:13:51;;;;;;;13.60;8.50;;;10.70;53.70;;;;;;5112993;28;20214;-92
2023/12/29 02:16:27;;;;;;;11.87;8.30;;;10.70;53.70;;;;;;5108146;28;20353;-90
2023/12/29 02:18:54;;;;;;;12.37;8.03;;;10.70;53.70;;;;;;5111300;28;20190;-91
2023/12/29 02:21:25;;;;;;;10.10;7.50;;;10.70;53.70;;;;;;5111559;28;20188;-91
2023/12/29 02:23:51;;;;;;;11.33;8.00;;;10.60;53.60;;;;;;5118213;28;20187;-89
2023/12/29 02:26:19;;;;;;;12.33;8.30;;;10.60;53.70;;;;;;5106031;28;20634;-90
2023/12/29 02:28:53;;;;;;;11.13;7.67;;;10.60;53.80;;;;;;5117357;28;20190;-90
2023/12/29 02:31:24;;;;;;;11.53;8.13;;;10.50;53.80;;;;;;5120925;27;20266;-91
2023/12/29 02:33:52;;;;;;;13.63;9.17;;;10.50;54.00;;;;;;5107758;28;20208;-91
2023/12/29 02:36:19;;;;;;;13.03;9.57;;;10.60;54.10;;;;;;5104057;28;20179;-89
2023/12/29 02:38:44;;;;;;;13.13;8.87;;;10.50;54.00;;;;;;5105257;28;20183;-90
2023/12/29 02:41:13;;;;;;;13.57;8.73;;;10.50;54.00;;;;;;5107890;28;20267;-90
2023/12/29 02:43:38;;;;;;;13.20;8.87;;;10.50;54.00;;;;;;5116178;28;20176;-92
2023/12/29 02:46:04;;;;;;;14.83;9.03;;;10.50;53.90;;;;;;5106226;28;20191;-92
2023/12/29 02:48:30;;;;;;;14.27;8.67;;;10.50;54.00;;;;;;5117895;28;20209;-91
2023/12/29 02:50:56;;;;;;;13.93;8.73;;;10.40;54.00;;;;;;5107483;28;20179;-89
2023/12/29 02:53:21;;;;;;;11.03;7.97;;;10.40;54.00;;;;;;5114105;28;20284;-90
2023/12/29 02:55:47;;;;;;;12.50;8.37;;;10.40;54.10;;;;;;5107518;28;20179;-90
2023/12/29 02:58:12;;;;;;;13.13;8.63;;;10.40;54.10;;;;;;5106285;28;20179;-90
2023/12/29 03:00:38;;;;;;;12.40;8.50;;;10.40;54.10;;;;;;5112795;28;20168;-90
2023/12/29 03:03:04;;;;;;;12.30;8.80;;;10.40;54.20;;;;;;5107076;28;20648;-90
2023/12/29 03:05:29;;;;;;;11.80;8.63;;;10.40;54.20;;;;;;5096330;28;20188;-90
2023/12/29 03:07:55;;;;;;;11.43;8.50;;;10.40;54.70;;;;;;5105069;28;20176;-90
2023/12/29 03:10:21;;;;;;;12.07;9.03;;;10.40;54.20;;;;;;5111394;28;20184;-90
2023/12/29 03:12:46;;;;;;;12.97;9.00;;;10.40;54.20;;;;;;5103580;28;20270;-90
2023/12/29 03:15:12;;;;;;;13.60;8.87;;;10.40;54.20;;;;;;5110241;28;20314;-90
2023/12/29 03:17:37;;;;;;;12.30;8.40;;;10.40;54.30;;;;;;5100610;28;20275;-90
2023/12/29 03:20:04;;;;;;;14.40;10.07;;;10.30;54.10;;;;;;5079191;28;20191;-90
2023/12/29 03:22:30;;;;;;;12.73;8.90;;;10.30;54.20;;;;;;5100182;28;20179;-90
2023/12/29 03:24:55;;;;;;;13.27;9.53;;;10.30;54.30;;;;;;5113390;28;20182;-90
2023/12/29 03:27:21;;;;;;;11.63;9.23;;;10.30;54.40;;;;;;5104365;28;20175;-90
2023/12/29 03:29:47;;;;;;;14.87;9.57;;;10.40;54.50;;;;;;5113036;28;20184;-90
2023/12/29 03:32:12;;;;;;;15.80;9.53;;;10.20;54.30;;;;;;5110583;28;20191;-90
2023/12/29 03:34:38;;;;;;;12.23;9.40;;;10.30;54.50;;;;;;5113074;28;20210;-90
2023/12/29 03:37:04;;;;;;;17.10;10.03;;;10.30;54.50;;;;;;5110868;28;20191;-90
2023/12/29 03:39:29;;;;;;;14.47;9.90;;;10.30;54.40;;;;;;5112756;28;20218;-90
2023/12/29 03:41:55;;;;;;;12.93;9.83;;;10.30;54.50;;;;;;5099878;28;20190;-90
2023/12/29 03:44:21;;;;;;;16.53;11.27;;;10.20;54.50;;;;;;5107792;28;20187;-90
2023/12/29 03:46:46;;;;;;;16.27;10.63;;;10.20;54.40;;;;;;5107847;28;20214;-90
2023/12/29 03:49:12;;;;;;;15.67;10.77;;;10.20;54.50;;;;;;5105303;28;20255;-90
2023/12/29 03:51:38;;;;;;;15.57;10.53;;;10.20;54.50;;;;;;5105960;28;20188;-90
2023/12/29 03:54:03;;;;;;;16.97;11.33;;;10.20;54.60;;;;;;5085187;28;20306;-90
2023/12/29 03:56:29;;;;;;;15.13;10.47;;;10.20;54.60;;;;;;5101470;28;20179;-91
2023/12/29 03:58:55;;;;;;;14.80;10.63;;;10.20;54.70;;;;;;5099770;28;20301;-90
2023/12/29 04:01:20;;;;;;;13.97;10.77;;;10.20;54.70;;;;;;5109861;28;20259;-90
2023/12/29 04:03:46;;;;;;;15.50;11.27;;;10.30;54.70;;;;;;5100953;28;20184;-90
2023/12/29 04:06:12;;;;;;;16.50;11.97;;;10.20;54.70;;;;;;5098564;28;20184;-90
2023/12/29 04:08:38;;;;;;;16.10;11.50;;;10.20;54.60;;;;;;5107007;28;20604;-90
2023/12/29 04:11:04;;;;;;;16.00;11.40;;;10.20;54.60;;;;;;5109609;28;20218;-90
2023/12/29 04:13:30;;;;;;;16.90;11.47;;;10.20;54.60;;;;;;5108805;28;20212;-90
2023/12/29 04:15:55;;;;;;;16.70;11.63;;;10.10;54.70;;;;;;5112271;28;20222;-90
2023/12/29 04:18:22;;;;;;;17.30;11.57;;;10.20;54.80;;;;;;5105750;28;20975;-89
2023/12/29 04:20:48;;;;;;;16.03;11.43;;;10.10;54.70;;;;;;5097814;28;20173;-90
2023/12/29 04:23:14;;;;;;;14.47;10.90;;;10.10;54.70;;;;;;5109126;28;20187;-90
2023/12/29 04:25:40;;;;;;;14.33;11.00;;;10.20;54.80;;;;;;5108451;28;20658;-90
2023/12/29 04:28:06;;;;;;;15.37;11.50;;;10.20;54.80;;;;;;5102332;28;20213;-90
2023/12/29 04:30:32;;;;;;;14.10;10.07;;;10.10;55.10;;;;;;5108413;28;20176;-90
2023/12/29 04:32:57;;;;;;;16.43;11.53;;;10.10;54.80;;;;;;5100000;28;20521;-86
2023/12/29 04:35:23;;;;;;;15.33;11.13;;;10.10;54.80;;;;;;5103608;28;20230;-90
2023/12/29 04:37:49;;;;;;;15.37;10.70;;;10.10;54.80;;;;;;5106377;28;20177;-90
2023/12/29 04:40:15;;;;;;;14.47;10.63;;;10.10;54.80;;;;;;5109054;28;20176;-88
2023/12/29 04:42:41;;;;;;;13.97;10.13;;;10.10;54.80;;;;;;5115839;28;20194;-89
2023/12/29 04:45:07;;;;;;;18.80;11.00;;;10.10;54.80;;;;;;5106059;28;20631;-90
2023/12/29 04:47:33;;;;;;;12.93;9.73;;;10.10;54.90;;;;;;5101223;28;20180;-90
2023/12/29 04:49:58;;;;;;;16.10;11.43;;;10.10;54.90;;;;;;5115685;28;20324;-90
2023/12/29 04:52:24;;;;;;;15.70;11.07;;;10.10;54.90;;;;;;5100249;28;20602;-90
2023/12/29 04:54:50;;;;;;;15.37;11.33;;;10.10;55.00;;;;;;5109135;28;20218;-90
2023/12/29 04:57:15;;;;;;;14.63;11.63;;;10.10;55.00;;;;;;5099337;28;20187;-90
2023/12/29 04:59:41;;;;;;;14.13;10.63;;;10.10;55.60;;;;;;5111243;28;20260;-89
2023/12/29 05:02:07;;;;;;;14.73;10.60;;;10.20;55.10;;;;;;5101845;28;20180;-89
2023/12/29 05:04:32;;;;;;;16.10;11.10;;;10.10;55.10;;;;;;5100995;28;20184;-89
2023/12/29 05:06:58;;;;;;;15.03;10.37;;;10.20;55.30;;;;;;5108204;28;20168;-89
2023/12/29 05:09:23;;;;;;;17.13;10.70;;;10.20;55.30;;;;;;5101354;28;20179;-90
2023/12/29 05:11:49;;;;;;;16.60;10.93;;;10.20;55.30;;;;;;5105198;28;20272;-90
2023/12/29 05:14:15;;;;;;;13.87;9.77;;;10.20;55.30;;;;;;5103141;28;20212;-89
2023/12/29 05:16:44;;;;;;;15.50;9.97;;;10.20;55.30;;;;;;5109154;28;20557;-90
2023/12/29 05:19:10;;;;;;;14.17;9.77;;;10.30;55.40;;;;;;5107786;28;20266;-90
2023/12/29 05:21:36;;;;;;;13.80;10.40;;;10.30;55.50;;;;;;5112162;28;20385;-90
2023/12/29 05:24:01;;;;;;;13.23;9.47;;;10.30;55.50;;;;;;5114825;28;20187;-90
2023/12/29 05:26:27;;;;;;;14.97;10.10;;;10.40;55.50;;;;;;5105387;28;20179;-89
2023/12/29 05:28:52;;;;;;;10.50;8.43;;;10.40;55.50;;;;;;5094737;28;20176;-91
2023/12/29 05:31:18;;;;;;;11.67;8.73;;;10.30;55.40;;;;;;5098136;28;20616;-89
2023/12/29 05:33:47;;;;;;;12.30;9.43;;;10.40;55.50;;;;;;5109034;28;20207;-90
2023/12/29 05:36:12;;;;;;;14.90;9.03;;;10.40;55.60;;;;;;5108303;28;20239;-91
2023/12/29 05:38:39;;;;;;;11.47;8.67;;;10.40;55.60;;;;;;5107279;28;20280;-90
2023/12/29 05:41:05;;;;;;;13.33;8.77;;;10.40;55.60;;;;;;5105235;28;20179;-90
2023/12/29 05:43:32;;;;;;;13.03;8.20;;;10.50;55.70;;;;;;5108741;28;20191;-89
2023/12/29 05:45:58;;;;;;;12.43;8.27;;;10.60;55.60;;;;;;5111216;28;20211;-90
2023/12/29 05:48:24;;;;;;;12.43;8.63;;;10.50;55.60;;;;;;5111233;28;20176;-88
2023/12/29 05:51:21;;;;;;;12.10;7.93;;;10.60;55.70;;;;;;5103031;28;20176;-90
2023/12/29 05:53:47;;;;;;;12.80;8.00;;;10.60;55.60;;;;;;5109869;28;20228;-90
2023/12/29 05:56:16;;;;;;;12.10;8.27;;;10.50;55.60;;;;;;5111031;28;20178;-90
2023/12/29 05:58:42;;;;;;;11.20;8.50;;;10.60;55.60;;;;;;5099277;28;20182;-89
2023/12/29 06:01:09;;;;;;;9.67;7.37;;;10.60;55.70;;;;;;5097998;28;20194;-90
2023/12/29 06:03:34;;;;;;;11.50;7.77;;;10.60;55.70;;;;;;5097760;28;20184;-88
2023/12/29 06:06:00;;;;;;;10.70;7.73;;;10.70;55.70;;;;;;5107974;28;20544;-91
2023/12/29 06:08:26;;;;;;;9.40;7.17;;;10.70;55.60;;;;;;5119959;28;20187;-90
2023/12/29 06:10:51;;;;;;;9.77;7.27;;;10.70;55.60;;;;;;5108607;28;20176;-91
2023/12/29 06:13:17;;;;;;;10.10;7.20;;;10.80;55.80;;;;;;5114898;28;20200;-89
2023/12/29 06:15:43;;;;;;;9.13;7.10;;;10.70;55.60;;;;;;5110960;28;20283;-91
2023/12/29 06:18:08;;;;;;;8.97;6.80;;;10.70;55.60;;;;;;5127609;27;20176;-92
2023/12/29 06:20:34;;;;;;;9.03;6.83;;;10.70;55.60;;;;;;5120290;28;20224;-89
2023/12/29 06:23:00;;;;;;;9.20;6.47;;;10.80;56.10;;;;;;5105344;28;20183;-89
2023/12/29 06:25:26;;;;;;;8.43;6.67;;;10.80;55.60;;;;;;5106908;28;20184;-90
2023/12/29 06:27:54;;;;;;;9.07;6.53;;;10.80;55.50;;;;;;5109187;28;20187;-90
2023/12/29 06:30:20;;;;;;;9.60;7.47;;;10.80;55.60;;;;;;5119514;28;20230;-88
2023/12/29 06:32:46;;;;;;;9.40;7.03;;;10.80;55.50;;;;;;5120159;28;20561;-92
2023/12/29 06:35:11;;;;;;;10.20;7.23;;;10.80;55.40;;;;;;5121207;28;20204;-89
2023/12/29 06:37:41;;;;;;;9.33;6.40;;;10.80;55.30;;;;;;5108237;28;20191;-90
2023/12/29 06:40:07;;;;;;;9.10;6.53;;;10.90;55.50;;;;;;5117454;28;20203;-90
2023/12/29 06:42:33;;;;;;;8.73;6.27;;;10.80;55.90;;;;;;5109974;28;20194;-89
2023/12/29 06:44:59;;;;;;;8.87;7.20;;;10.80;55.30;;;;;;5108406;28;20196;-89
2023/12/29 06:47:24;;;;;;;9.67;6.83;;;10.90;55.30;;;;;;5103142;28;20179;-92
2023/12/29 06:49:50;;;;;;;10.17;7.00;;;11.00;55.30;;;;;;5114642;28;20522;-90
2023/12/29 06:52:16;;;;;;;8.83;7.00;;;10.90;55.30;;;;;;5121457;28;20209;-91
2023/12/29 06:54:42;;;;;;;8.50;6.67;;;10.80;55.20;;;;;;5111010;28;20218;-91
2023/12/29 06:57:08;;;;;;;8.47;6.87;;;10.90;55.10;;;;;;5118445;28;20262;-88
2023/12/29 06:59:33;;;;;;;11.70;7.37;;;10.90;55.20;;;;;;5110753;28;20188;-90
2023/12/29 07:01:59;;;;;;;9.73;7.07;;;11.00;55.30;;;;;;5103842;28;20168;-91
2023/12/29 07:04:25;;;;;;;10.07;7.10;;;10.90;55.20;;;;;;5121745;28;20264;-90
2023/12/29 07:06:50;;;;;;;9.23;7.10;;;10.90;55.10;;;;;;5100473;28;20184;-90
2023/12/29 07:09:16;;;;;;;10.20;7.17;;;10.90;55.10;;;;;;5106301;28;20179;-91
2023/12/29 07:11:46;;;;;;;10.13;7.37;;;10.90;55.20;;;;;;5118308;28;20243;-88
2023/12/29 07:14:12;;;;;;;10.17;7.27;;;10.90;55.20;;;;;;5109477;28;20214;-90
2023/12/29 07:16:38;;;;;;;9.60;7.50;;;10.90;55.20;;;;;;5110730;28;20224;-91
2023/12/29 07:19:03;;;;;;;11.90;7.90;;;10.90;55.20;;;;;;5112062;28;20202;-90
2023/12/29 07:21:29;;;;;;;9.83;7.90;;;10.90;55.20;;;;;;5114991;28;20241;-89
2023/12/29 07:23:54;;;;;;;11.13;7.73;;;10.80;55.20;;;;;;5119455;28;20639;-89
2023/12/29 07:26:20;;;;;;;12.20;8.27;;;11.00;55.30;;;;;;5110917;28;20196;-90
2023/12/29 07:28:46;;;;;;;10.73;8.20;;;10.90;55.20;;;;;;5120595;28;20213;-90
2023/12/29 07:31:12;;;;;;;10.13;7.40;;;11.00;55.30;;;;;;5126350;28;20175;-89
2023/12/29 07:33:37;;;;;;;9.57;7.20;;;11.00;55.30;;;;;;5118554;28;20214;-89
2023/12/29 07:36:03;;;;;;;9.50;7.30;;;11.00;55.30;;;;;;5097844;28;20270;-90
2023/12/29 07:38:29;;;;;;;9.63;7.43;;;10.90;55.20;;;;;;5115747;28;20200;-91
2023/12/29 07:40:55;;;;;;;9.73;6.83;;;11.00;55.30;;;;;;5125142;28;20183;-89
2023/12/29 07:43:20;;;;;;;10.17;7.07;;;10.90;55.30;;;;;;5126512;28;20218;-89
2023/12/29 07:45:46;;;;;;;8.07;6.37;;;11.00;55.40;;;;;;5112096;28;20179;-89
2023/12/29 07:48:12;;;;;;;9.20;7.00;;;11.00;55.30;;;;;;5116638;28;20516;-88
2023/12/29 07:50:37;;;;;;;9.13;7.03;;;11.10;55.40;;;;;;5112242;28;20569;-90
2023/12/29 07:53:03;;;;;;;9.20;7.20;;;11.10;55.30;;;;;;5123392;28;20183;-91
2023/12/29 07:55:32;;;;;;;9.30;6.67;;;11.10;55.10;;;;;;5118918;28;20290;-90
2023/12/29 07:57:58;;;;;;;8.27;6.10;;;11.00;55.00;;;;;;5122121;28;20267;-90
2023/12/29 08:00:24;;;;;;;5.90;5.30;;;11.10;55.10;;;;;;5121352;28;20179;-89
2023/12/29 08:02:50;;;;;;;5.90;4.93;;;11.10;55.10;;;;;;5119488;28;20180;-91
2023/12/29 08:05:16;;;;;;;7.23;5.23;;;11.10;55.20;;;;;;5124907;28;20180;-91
2023/12/29 08:07:42;;;;;;;7.73;5.50;;;11.10;55.20;;;;;;5111118;28;20186;-89
2023/12/29 08:10:08;;;;;;;8.67;5.60;;;11.10;55.20;;;;;;5119870;28;20184;-91
2023/12/29 08:12:35;;;;;;;6.57;5.27;;;11.20;55.20;;;;;;5119000;28;20179;-90
2023/12/29 08:15:02;;;;;;;9.87;5.23;;;11.10;55.00;;;;;;5107330;28;20225;-89
2023/12/29 08:17:28;;;;;;;8.07;5.33;;;11.20;55.20;;;;;;5108948;28;20183;-91
2023/12/29 08:19:54;;;;;;;6.27;5.27;;;11.20;55.20;;;;;;5105617;28;20186;-91
2023/12/29 08:22:21;;;;;;;8.50;5.40;;;11.30;55.20;;;;;;5115123;28;20182;-90
2023/12/29 08:24:46;;;;;;;6.20;4.70;;;11.30;55.10;;;;;;5110387;28;20580;-90
2023/12/29 08:27:13;;;;;;;7.20;5.77;;;11.30;55.10;;;;;;5107466;28;20192;-90
2023/12/29 08:29:42;;;;;;;7.40;5.70;;;11.40;55.20;;;;;;5113397;28;20210;-90
2023/12/29 08:32:07;;;;;;;8.17;6.10;;;11.40;55.00;;;;;;5114537;28;20175;-92
2023/12/29 08:34:37;;;;;;;9.27;6.50;;;11.40;55.00;;;;;;5120963;28;20279;-93
2023/12/29 08:37:03;;;;;;;10.23;6.93;;;11.40;55.00;;;;;;5119075;28;20183;-89
2023/12/29 08:39:29;;;;;;;9.20;6.97;;;11.30;54.80;;;;;;5109643;28;20198;-91
2023/12/29 08:41:55;;;;;;;7.37;6.37;;;11.30;54.90;;;;;;5104968;28;20563;-93
2023/12/29 08:44:21;;;;;;;8.40;6.53;;;11.30;54.80;;;;;;5105919;28;20175;-92
2023/12/29 08:46:47;;;;;;;9.73;7.03;;;11.40;55.00;;;;;;5099786;28;20200;-91
2023/12/29 08:49:12;;;;;;;11.40;7.60;;;11.30;55.00;;;;;;5105938;28;20185;-91
2023/12/29 08:51:38;;;;;;;10.43;6.93;;;11.30;54.90;;;;;;5108125;28;20199;-92
2023/12/29 08:54:03;;;;;;;10.60;7.57;;;11.30;55.00;;;;;;5124964;27;20203;-90
2023/12/29 08:56:29;;;;;;;9.77;7.33;;;11.30;55.00;;;;;;5099336;28;20184;-94
2023/12/29 08:59:03;;;;;;;11.40;7.60;;;11.30;55.00;;;;;;5101094;28;20172;-92
2023/12/29 09:01:48;;;;;;;9.50;6.60;;;11.40;54.90;;;;;;5105236;28;20194;-91
2023/12/29 09:04:17;;;;;;;10.43;6.90;;;11.30;54.80;;;;;;5109408;28;20219;-93
2023/12/29 09:06:43;;;;;;;9.17;6.90;;;11.40;54.90;;;;;;5104628;28;20195;-91
2023/12/29 09:09:12;;;;;;;11.13;7.03;;;11.40;55.40;;;;;;5106173;28;20206;-92
2023/12/29 09:11:39;;;;;;;10.20;7.03;;;11.40;54.80;;;;;;5105983;28;20692;-88
2023/12/29 09:14:05;;;;;;;8.60;6.50;;;11.40;54.90;;;;;;5113527;28;20206;-95
2023/12/29 09:16:30;;;;;;;7.20;5.97;;;11.30;54.70;;;;;;5106608;28;20223;-91
2023/12/29 09:18:56;;;;;;;9.53;6.80;;;11.40;55.00;;;;;;5103773;28;20176;-91
2023/12/29 09:21:22;;;;;;;8.70;6.83;;;11.40;55.10;;;;;;5112729;28;20195;-92
2023/12/29 09:23:48;;;;;;;8.30;6.20;;;11.40;55.00;;;;;;5093396;28;20263;-92
2023/12/29 09:26:46;;;;;;;8.47;6.33;;;11.40;54.90;;;;;;5104816;28;20207;-94
2023/12/29 09:29:18;;;;;;;7.93;6.27;;;11.40;54.90;;;;;;5107461;28;20173;-90
2023/12/29 09:31:44;;;;;;;7.30;6.27;;;11.40;54.90;;;;;;5100857;28;20634;-90
2023/12/29 09:34:14;;;;;;;8.83;6.70;;;11.40;55.00;;;;;;5110308;28;20675;-90
2023/12/29 09:36:39;;;;;;;9.23;6.77;;;11.40;55.00;;;;;;5111414;28;20188;-90
2023/12/29 09:39:05;;;;;;;9.93;6.40;;;11.40;55.10;;;;;;5100720;28;20186;-90
2023/12/29 09:41:33;;;;;;;6.87;5.90;;;11.50;55.30;;;;;;5107677;28;20206;-90
2023/12/29 09:44:03;;;;;;;7.57;6.33;;;11.50;55.20;;;;;;5100719;28;20236;-90
2023/12/29 09:46:32;;;;;;;8.50;6.47;;;11.50;55.30;;;;;;5101193;28;20520;-90
2023/12/29 09:49:03;;;;;;;8.50;6.00;;;11.60;55.30;;;;;;5097478;28;20177;-91
2023/12/29 09:51:29;;;;;;;9.33;5.47;;;11.60;55.20;;;;;;5100304;28;20309;-90
2023/12/29 09:53:58;;;;;;;6.03;5.40;;;11.60;55.20;;;;;;5107949;28;20284;-91
2023/12/29 09:57:05;;;;;;;7.00;5.90;;;11.60;55.20;;;;;;5101651;28;20192;-92
2023/12/29 09:59:36;;;;;;;8.97;5.43;;;11.70;55.30;;;;;;5097675;28;20172;-91
2023/12/29 10:02:04;;;;;;;7.27;5.53;;;11.70;55.40;;;;;;5078219;28;20188;-91
2023/12/29 10:04:30;;;;;;;7.83;5.47;;;11.80;55.30;;;;;;5105636;28;20240;-91
2023/12/29 10:07:07;;;;;;;6.40;5.47;;;11.80;55.20;;;;;;5114033;28;20180;-92
2023/12/29 10:09:34;;;;;;;9.30;5.90;;;11.80;55.30;;;;;;5110702;28;20635;-91
2023/12/29 10:12:03;;;;;;;8.13;6.07;;;11.80;55.30;;;;;;5114283;28;20176;-92
2023/12/29 10:14:56;;;;;;;6.93;5.00;;;11.90;55.30;;;;;;5108379;28;20539;-91
2023/12/29 10:17:44;;;;;;;6.43;5.30;;;11.90;55.10;;;;;;5107055;28;20640;-91
2023/12/29 10:20:41;;;;;;;6.03;4.83;;;11.90;55.10;;;;;;5111740;28;20187;-90
2023/12/29 10:23:18;;;;;;;6.43;4.67;;;11.90;55.30;;;;;;5105898;28;20210;-91
2023/12/29 10:25:44;;;;;;;6.93;5.57;;;12.00;55.50;;;;;;5113425;28;20171;-89
2023/12/29 10:28:10;;;;;;;6.40;4.90;;;12.00;55.20;;;;;;5099049;28;20185;-90
2023/12/29 10:30:37;;;;;;;7.33;5.37;;;12.00;55.10;;;;;;5101728;28;20245;-90
2023/12/29 10:33:04;;;;;;;8.07;5.77;;;12.00;55.00;;;;;;5109306;28;20183;-90
2023/12/29 10:35:30;;;;;;;6.93;5.30;;;12.00;55.10;;;;;;5101799;28;20196;-90
2023/12/29 10:38:10;;;;;;;6.00;5.23;;;12.00;55.10;;;;;;5098627;28;20548;-90
2023/12/29 10:40:36;;;;;;;6.83;5.47;;;12.00;55.00;;;;;;5108212;28;20202;-88
2023/12/29 10:43:06;;;;;;;7.90;5.40;;;12.00;55.00;;;;;;5098461;28;20177;-90
2023/12/29 10:45:32;;;;;;;7.20;4.97;;;12.00;55.00;;;;;;5112188;28;20190;-90
2023/12/29 10:48:02;;;;;;;8.07;5.77;;;12.10;55.00;;;;;;5113703;28;20219;-90
2023/12/29 10:54:43;;;;;;;8.90;5.77;;;12.10;55.00;;;;;;5085386;28;20208;-89
2023/12/29 10:57:21;;;;;;;9.63;5.27;;;12.20;55.20;;;;;;5084077;28;20203;-89
2023/12/29 11:00:00;;;;;;;6.30;5.50;;;12.20;55.20;;;;;;5074637;28;20197;-89
2023/12/29 11:02:27;;;;;;;7.37;5.23;;;12.30;55.20;;;;;;5080181;28;20181;-89
2023/12/29 11:05:08;;;;;;;5.33;4.70;;;12.30;55.20;;;;;;5067947;28;20208;-89
2023/12/29 11:07:41;;;;;;;6.57;4.83;;;12.30;55.00;;;;;;5081745;28;20363;-88
2023/12/29 11:10:09;;;;;;;6.77;5.00;;;12.30;55.10;;;;;;5084773;28;20180;-89
2023/12/29 11:12:41;;;;;;;6.53;5.13;;;12.30;54.80;;;;;;5074549;28;20176;-91
2023/12/29 11:15:10;;;;;;;7.03;5.60;;;12.30;54.90;;;;;;5080549;28;20228;-88
2023/12/29 11:17:35;;;;;;;6.23;5.00;;;12.30;54.80;;;;;;5072953;28;20176;-88
2023/12/29 11:20:04;;;;;;;6.50;5.17;;;12.30;54.90;;;;;;5073959;28;20215;-85
2023/12/29 11:22:31;;;;;;;7.47;5.40;;;12.30;54.90;;;;;;5079154;28;20251;-88
2023/12/29 11:25:00;;;;;;;7.40;5.10;;;12.30;54.90;;;;;;5065111;28;20620;-82
2023/12/29 11:27:30;;;;;;;7.03;5.33;;;12.40;54.90;;;;;;5063190;28;20205;-81
2023/12/29 11:30:02;;;;;;;7.73;5.03;;;12.40;54.90;;;;;;5102597;28;20179;-81
2023/12/29 11:32:45;;;;;;;8.37;5.77;;;12.50;55.00;;;;;;5096730;28;20187;-83
2023/12/29 11:35:15;;;;;;;7.03;5.00;;;12.50;54.90;;;;;;5099668;28;20210;-82
2023/12/29 11:37:43;;;;;;;8.27;5.40;;;12.50;54.80;;;;;;5093276;28;20512;-81
2023/12/29 11:40:43;;;;;;;6.90;5.17;;;12.50;54.50;;;;;;5095404;28;20677;-81
2023/12/29 11:43:17;;;;;;;8.57;5.77;;;12.50;55.00;;;;;;5077655;28;20275;-80
2023/12/29 11:45:44;;;;;;;6.97;4.93;;;12.50;55.10;;;;;;5100254;28;20171;-81
2023/12/29 11:48:11;;;;;;;7.80;5.53;;;12.50;54.50;;;;;;5103173;28;20169;-80
2023/12/29 11:50:40;;;;;;;6.40;5.30;;;12.50;54.60;;;;;;5099988;28;20313;-80
2023/12/29 11:53:06;;;;;;;7.27;5.07;;;12.60;54.60;;;;;;5098825;28;20184;-79
2023/12/29 11:55:37;;;;;;;8.40;5.27;;;12.60;54.60;;;;;;5103520;28;20269;-80
2023/12/29 11:58:28;;;;;;;7.37;5.37;;;12.60;54.50;;;;;;5095718;28;20632;-80
2023/12/29 12:00:55;;;;;;;6.73;4.90;;;12.60;54.60;;;;;;5101683;28;20187;-80
2023/12/29 12:03:31;;;;;;;7.47;5.63;;;12.70;54.50;;;;;;5096196;28;20172;-79
2023/12/29 12:05:58;;;;;;;5.70;5.10;;;12.70;54.40;;;;;;5100088;28;20188;-80
2023/12/29 12:08:39;;;;;;;7.47;5.50;;;12.70;54.30;;;;;;5098843;28;20183;-80
2023/12/29 12:11:30;;;;;;;7.83;5.87;;;12.70;54.30;;;;;;5096747;28;20199;-80
2023/12/29 12:13:56;;;;;;;6.67;4.80;;;12.70;54.40;;;;;;5096504;28;20304;-80
2023/12/29 12:16:47;;;;;;;7.20;5.77;;;12.60;54.20;;;;;;5101665;28;20298;-80
2023/12/29 12:19:14;;;;;;;8.30;5.00;;;12.60;54.20;;;;;;5108161;28;20720;-80
2023/12/29 12:21:41;;;;;;;7.10;5.20;;;12.70;54.30;;;;;;5093496;28;20183;-81
2023/12/29 12:24:07;;;;;;;6.77;5.37;;;12.70;54.30;;;;;;5104185;28;20203;-80
2023/12/29 12:26:33;;;;;;;8.97;5.40;;;12.70;54.30;;;;;;5096797;28;20219;-80
2023/12/29 12:28:59;;;;;;;7.70;5.17;;;12.70;54.40;;;;;;5100863;28;20188;-80
2023/12/29 12:31:26;;;;;;;7.97;5.23;;;12.80;54.40;;;;;;5098861;28;20281;-80
2023/12/29 12:33:56;;;;;;;8.60;5.70;;;12.80;54.40;;;;;;5111888;28;20215;-80
2023/12/29 12:36:22;;;;;;;7.60;5.77;;;12.80;54.40;;;;;;5104879;28;20172;-80
2023/12/29 12:38:55;;;;;;;6.83;5.57;;;12.80;54.40;;;;;;5107476;28;20574;-80
2023/12/29 12:41:22;;;;;;;7.20;5.17;;;12.90;54.40;;;;;;5101636;28;20238;-80
2023/12/29 12:44:14;;;;;;;6.83;5.43;;;12.90;54.30;;;;;;5103582;28;20179;-80
2023/12/29 12:46:52;;;;;;;7.63;5.13;;;12.90;54.40;;;;;;5086651;28;20253;-80
2023/12/29 12:49:19;;;;;;;6.57;4.97;;;13.00;54.30;;;;;;5105910;28;20215;-80